createdAt,value
2022-10-11T00:09:46.995Z,0.95
2022-10-11T00:12:57.517Z,1.25
2022-10-11T00:16:09.118Z,1.10
2022-10-11T00:19:03.983Z,1.08
2022-10-11T00:21:59.172Z,1.38
2022-10-11T00:25:29.792Z,1.00
2022-10-11T00:28:42.377Z,0.95
2022-10-11T00:35:22.620Z,0.82
2022-10-11T00:38:09.726Z,0.80
2022-10-11T00:41:03.777Z,0.85
2022-10-11T00:43:50.368Z,0.88
2022-10-11T00:46:56.011Z,0.75
2022-10-11T00:50:10.260Z,0.70
2022-10-11T00:52:46.988Z,1.08
2022-10-11T00:55:44.383Z,0.65
2022-10-11T01:05:25.624Z,0.70
2022-10-11T01:08:13.248Z,0.70
2022-10-11T01:10:58.668Z,0.50
2022-10-11T01:14:32.424Z,0.60
2022-10-11T01:21:27.123Z,1.02
2022-10-11T01:27:48.158Z,1.58
2022-10-11T01:30:32.376Z,0.93
2022-10-11T01:36:55.009Z,0.65
2022-10-11T01:39:47.037Z,1.05
2022-10-11T01:42:46.943Z,0.68
2022-10-11T01:45:52.552Z,1.08
2022-10-11T01:48:56.985Z,0.82
2022-10-11T01:51:50.790Z,1.35
2022-10-11T01:54:49.781Z,0.28
2022-10-11T01:58:27.931Z,0.80
2022-10-11T02:01:19.683Z,0.55
2022-10-11T02:03:55.428Z,0.90
2022-10-11T02:06:47.330Z,0.80
2022-10-11T02:09:30.197Z,0.60
2022-10-11T02:12:03.876Z,0.55
2022-10-11T02:14:35.485Z,0.60
2022-10-11T02:17:28.177Z,1.15
2022-10-11T02:20:14.360Z,1.05
2022-10-11T02:23:13.546Z,1.35
2022-10-11T02:25:53.740Z,0.88
2022-10-11T02:29:09.850Z,0.80
2022-10-11T02:42:32.775Z,0.95
2022-10-11T02:46:03.314Z,0.50
2022-10-11T02:48:59.696Z,0.80
2022-10-11T02:51:55.768Z,1.17
2022-10-11T02:54:39.452Z,0.82
2022-10-11T02:57:37.949Z,0.63
2022-10-11T03:00:55.080Z,0.63
2022-10-11T03:03:53.157Z,1.23
2022-10-11T03:06:50.028Z,1.23
2022-10-11T03:10:07.411Z,0.75
2022-10-11T03:17:07.839Z,1.00
2022-10-11T03:20:25.846Z,1.38
2022-10-11T03:23:20.132Z,0.80
2022-10-11T03:26:40.450Z,0.80
2022-10-11T03:43:11.992Z,0.65
2022-10-11T03:45:55.957Z,1.05
2022-10-11T03:48:43.173Z,0.90
2022-10-11T03:51:50.965Z,0.93
2022-10-11T03:54:56.587Z,1.08
2022-10-11T03:57:46.995Z,0.70
2022-10-11T04:00:49.530Z,5.93
2022-10-11T04:03:38.959Z,1.63
2022-10-11T04:06:50.878Z,0.95
2022-10-11T04:10:07.813Z,0.70
2022-10-11T04:12:56.957Z,0.68
2022-10-11T04:15:53.482Z,1.02
2022-10-11T04:19:14.986Z,0.63
2022-10-11T04:22:53.785Z,0.82
2022-10-11T04:25:50.045Z,1.00
2022-10-11T04:31:59.459Z,1.15
2022-10-11T04:34:54.361Z,1.55
2022-10-11T04:37:41.151Z,1.20
2022-10-11T04:40:31.349Z,1.40
2022-10-11T04:43:16.552Z,1.67
2022-10-11T04:45:55.572Z,1.92
2022-10-11T04:48:36.714Z,1.38
2022-10-11T04:51:18.330Z,0.90
2022-10-11T04:53:57.023Z,1.00
2022-10-11T04:56:38.165Z,1.52
2022-10-11T04:59:18.558Z,0.98
2022-10-11T05:01:56.673Z,1.10
2022-10-11T05:04:36.774Z,1.05
2022-10-11T05:07:15.886Z,1.05
2022-10-11T05:09:56.525Z,0.85
2022-10-11T05:12:37.038Z,1.00
2022-10-11T05:15:18.461Z,1.20
2022-10-11T05:17:56.883Z,0.95
2022-10-11T05:20:35.230Z,1.13
2022-10-11T05:23:15.705Z,0.98
2022-10-11T05:25:57.426Z,0.80
2022-10-11T05:31:41.606Z,1.45
2022-10-11T05:34:45.902Z,1.58
2022-10-11T05:37:30.098Z,0.98
2022-10-11T05:40:11.287Z,0.93
2022-10-11T05:42:50.054Z,1.63
2022-10-11T05:45:56.174Z,1.00
2022-10-11T05:48:46.898Z,0.93
2022-10-11T05:51:32.590Z,1.08
2022-10-11T05:54:15.835Z,1.02
2022-10-11T05:56:56.135Z,1.58
2022-10-11T05:59:46.542Z,0.90
2022-10-11T06:02:43.174Z,0.90
2022-10-11T06:05:46.774Z,1.10
2022-10-11T06:08:46.634Z,0.80
2022-10-11T06:22:06.486Z,1.40
2022-10-11T06:32:18.530Z,1.67
2022-10-11T06:35:20.331Z,1.35
2022-10-11T06:38:45.676Z,2.20
2022-10-11T06:41:59.318Z,1.90
2022-10-11T06:45:02.986Z,1.20
2022-10-11T06:48:17.284Z,1.40
2022-10-11T07:00:45.505Z,1.80
2022-10-11T07:03:47.942Z,2.10
2022-10-11T07:17:36.147Z,3.03
2022-10-11T07:20:44.359Z,6.85
2022-10-11T07:23:46.691Z,3.40
2022-10-11T07:26:52.434Z,13.68
2022-10-11T07:30:10.869Z,8.80
2022-10-11T07:43:35.908Z,3.67
2022-10-11T07:57:01.516Z,10.00
2022-10-11T08:00:20.527Z,6.10
2022-10-11T08:03:38.081Z,10.90
2022-10-11T08:16:59.504Z,3.50
2022-10-11T08:20:05.077Z,5.03
2022-10-11T08:23:02.408Z,7.38
2022-10-11T08:32:52.709Z,5.85
2022-10-11T08:35:51.508Z,2.17
2022-10-11T08:40:11.591Z,2.28
2022-10-11T08:43:56.908Z,1.75
2022-10-11T08:47:18.544Z,1.90
2022-10-11T09:00:54.168Z,4.18
2022-10-11T09:03:47.736Z,9.57
2022-10-11T09:07:03.846Z,2.85
2022-10-11T09:10:15.239Z,2.83
2022-10-11T09:13:57.409Z,3.75
2022-10-11T09:17:15.833Z,5.45
2022-10-11T09:19:59.881Z,3.60
2022-10-11T09:22:50.600Z,2.03
2022-10-11T09:52:24.497Z,1.52
2022-10-11T09:58:50.387Z,1.45
2022-10-11T10:01:28.672Z,1.92
2022-10-11T10:08:25.307Z,1.75
2022-10-11T10:14:33.204Z,1.77
2022-10-11T10:17:15.748Z,1.45
2022-10-11T10:19:50.834Z,1.10
2022-10-11T10:22:38.404Z,1.48
2022-10-11T10:28:37.546Z,1.35
2022-10-11T10:31:05.088Z,1.45
2022-10-11T10:33:38.464Z,0.90
2022-10-11T10:36:37.704Z,0.77
2022-10-11T10:39:25.708Z,1.42
2022-10-11T10:42:20.728Z,0.98
2022-10-11T10:44:53.900Z,1.50
2022-10-11T10:47:44.717Z,21.45
2022-10-11T10:50:33.308Z,2.00
2022-10-11T10:53:27.401Z,7.07
2022-10-11T10:56:34.466Z,8.75
2022-10-11T10:59:25.884Z,8.88
2022-10-11T11:02:42.285Z,5.53
2022-10-11T11:05:43.277Z,8.90
2022-10-11T11:08:57.717Z,7.95
2022-10-11T11:11:47.630Z,1.52
2022-10-11T11:14:39.978Z,1.10
2022-10-11T11:17:17.308Z,0.68
2022-10-11T11:20:09.565Z,1.58
2022-10-11T11:22:36.757Z,0.90
2022-10-11T11:25:21.832Z,1.50
2022-10-11T11:27:55.170Z,1.70
2022-10-11T11:30:42.465Z,2.53
2022-10-11T11:33:20.209Z,9.50
2022-10-11T11:35:56.782Z,3.40
2022-10-11T11:38:40.009Z,2.05
2022-10-11T11:41:22.885Z,6.13
2022-10-11T11:43:59.622Z,4.70
2022-10-11T11:46:35.753Z,4.25
2022-10-11T11:49:27.294Z,1.60
2022-10-11T11:51:56.713Z,1.90
2022-10-11T11:54:48.957Z,1.45
2022-10-11T11:57:20.874Z,0.80
2022-10-11T12:00:04.034Z,0.80
2022-10-11T12:02:50.126Z,0.98
2022-10-11T12:05:21.338Z,0.88
2022-10-11T12:07:53.861Z,0.77
2022-10-11T12:10:57.763Z,0.80
2022-10-11T12:13:32.001Z,1.10
2022-10-11T12:16:12.889Z,1.00
2022-10-11T12:19:02.761Z,1.00
2022-10-11T12:21:38.200Z,0.80
2022-10-11T12:24:20.759Z,0.90
2022-10-11T12:26:48.809Z,0.85
2022-10-11T12:29:18.813Z,0.93
2022-10-11T12:32:00.886Z,1.00
2022-10-11T12:34:35.763Z,1.15
2022-10-11T12:37:18.822Z,10.52
2022-10-11T12:40:01.362Z,25.27
2022-10-11T12:42:36.127Z,16.27
2022-10-11T12:45:24.447Z,19.27
2022-10-11T12:48:34.066Z,8.70
2022-10-11T12:51:30.871Z,3.35
2022-10-11T12:54:53.351Z,5.40
2022-10-11T12:58:31.410Z,2.25
2022-10-11T13:04:00.167Z,1.30
2022-10-11T13:06:36.234Z,2.40
2022-10-11T13:11:42.874Z,6.90
2022-10-11T13:14:26.846Z,1.90
2022-10-11T13:17:09.989Z,2.95
2022-10-11T13:19:50.620Z,2.75
2022-10-11T13:22:28.590Z,2.92
2022-10-11T13:24:58.047Z,4.47
2022-10-11T13:31:16.311Z,6.03
2022-10-11T13:35:24.008Z,2.28
2022-10-11T13:38:37.494Z,2.65
2022-10-11T13:41:13.608Z,4.40
2022-10-11T13:43:41.434Z,1.90
2022-10-11T13:46:25.718Z,2.50
2022-10-11T13:49:03.819Z,4.30
2022-10-11T13:51:39.443Z,1.88
2022-10-11T13:54:13.918Z,0.95
2022-10-11T13:56:50.267Z,0.90
2022-10-11T13:59:29.914Z,0.57
2022-10-11T14:02:06.375Z,1.25
2022-10-11T14:04:47.163Z,1.00
2022-10-11T14:07:41.879Z,0.80
2022-10-11T14:10:34.212Z,3.47
2022-10-11T14:13:24.582Z,4.32
2022-10-11T14:16:08.668Z,2.30
2022-10-11T14:19:08.273Z,2.50
2022-10-11T14:21:57.343Z,1.70
2022-10-11T14:24:24.996Z,2.75
2022-10-11T14:27:23.481Z,2.13
2022-10-11T14:30:19.819Z,1.77
2022-10-11T14:32:43.289Z,5.15
2022-10-11T14:35:19.387Z,5.45
2022-10-11T14:37:46.999Z,14.50
2022-10-11T14:40:17.588Z,8.38
2022-10-11T14:42:44.777Z,5.05
2022-10-11T14:45:12.075Z,2.85
2022-10-11T14:47:43.185Z,4.75
2022-10-11T14:50:33.878Z,5.22
2022-10-11T14:53:04.095Z,3.22
2022-10-11T14:55:41.404Z,1.52
2022-10-11T14:58:14.067Z,1.42
2022-10-11T15:00:56.971Z,1.45
2022-10-11T15:03:27.065Z,1.30
2022-10-11T15:06:09.445Z,0.98
2022-10-11T15:08:41.780Z,1.13
2022-10-11T15:11:15.592Z,0.65
2022-10-11T15:13:50.855Z,1.10
2022-10-11T15:16:32.764Z,0.77
2022-10-11T15:19:00.520Z,0.90
2022-10-11T15:21:28.771Z,0.70
2022-10-11T15:23:56.718Z,0.60
2022-10-11T15:26:28.843Z,0.63
2022-10-11T15:28:57.542Z,0.55
2022-10-11T15:31:28.523Z,0.77
2022-10-11T15:33:59.541Z,1.45
2022-10-11T15:36:26.803Z,0.73
2022-10-11T15:38:54.320Z,0.88
2022-10-11T15:41:21.608Z,0.80
2022-10-11T15:46:37.484Z,0.95
2022-10-11T15:49:13.135Z,1.08
2022-10-11T15:51:40.654Z,0.63
2022-10-11T15:54:10.349Z,1.00
2022-10-11T15:56:40.623Z,1.13
2022-10-11T15:59:11.463Z,1.10
2022-10-11T16:01:38.615Z,0.90
2022-10-11T16:04:06.277Z,0.88
2022-10-11T16:06:38.427Z,1.02
2022-10-11T16:09:11.868Z,0.80
2022-10-11T16:11:46.202Z,1.13
2022-10-11T16:14:18.384Z,1.00
2022-10-11T16:16:46.985Z,0.85
2022-10-11T16:19:14.400Z,0.75
2022-10-11T16:21:42.112Z,0.90
2022-10-11T16:24:15.205Z,1.00
2022-10-11T16:26:45.487Z,0.90
2022-10-11T16:29:16.824Z,1.40
2022-10-11T16:31:43.992Z,0.85
2022-10-11T16:34:12.725Z,0.75
2022-10-11T16:36:43.217Z,0.85
2022-10-11T16:39:18.174Z,0.70
2022-10-11T16:41:54.386Z,0.73
2022-10-11T16:44:53.198Z,0.88
2022-10-11T16:47:23.825Z,0.63
2022-10-11T16:49:52.387Z,1.17
2022-10-11T16:52:24.147Z,1.27
2022-10-11T16:55:03.585Z,1.25
2022-10-11T16:57:30.728Z,0.85
2022-10-11T17:00:03.724Z,1.08
2022-10-11T17:02:36.545Z,0.52
2022-10-11T17:05:04.244Z,0.57
2022-10-11T17:07:31.680Z,0.60
2022-10-11T17:13:30.753Z,0.70
2022-10-11T17:16:11.767Z,0.60
2022-10-11T17:18:53.501Z,0.50
2022-10-11T17:21:26.032Z,0.55
2022-10-11T17:23:55.274Z,0.63
2022-10-11T17:26:27.361Z,0.60
2022-10-11T17:28:56.244Z,0.60
2022-10-11T17:34:52.009Z,0.52
2022-10-11T17:37:19.558Z,1.00
2022-10-11T17:39:49.192Z,0.77
2022-10-11T17:42:31.591Z,0.93
2022-10-11T17:45:20.411Z,0.70
2022-10-11T17:47:54.652Z,0.65
2022-10-11T17:50:24.217Z,0.63
2022-10-11T17:52:54.181Z,0.32
2022-10-11T17:55:32.212Z,0.40
2022-10-11T17:58:01.049Z,0.57
2022-10-11T18:00:41.599Z,0.60
2022-10-11T18:03:09.388Z,0.60
2022-10-11T18:05:59.168Z,0.55
2022-10-11T18:08:26.981Z,0.60
2022-10-11T18:10:54.297Z,0.60
2022-10-11T18:13:29.977Z,0.57
2022-10-11T18:16:01.904Z,0.55
2022-10-11T18:18:29.709Z,0.50
2022-10-11T18:21:01.721Z,0.70
2022-10-11T18:23:37.112Z,0.43
2022-10-11T18:26:12.986Z,0.52
2022-10-11T18:28:41.095Z,0.57
2022-10-11T18:31:13.327Z,0.50
2022-10-11T18:33:42.058Z,0.60
2022-10-11T18:36:13.611Z,0.63
2022-10-11T18:38:49.421Z,0.73
2022-10-11T18:41:19.844Z,0.88
2022-10-11T18:43:54.421Z,0.93
2022-10-11T18:46:23.500Z,0.70
2022-10-11T18:48:54.009Z,0.70
2022-10-11T18:51:32.276Z,0.70
2022-10-11T18:54:04.921Z,0.50
2022-10-11T18:56:48.625Z,0.63
2022-10-11T18:59:20.488Z,1.23
2022-10-11T19:01:53.179Z,1.10
2022-10-11T19:04:23.585Z,0.77
2022-10-11T19:07:19.024Z,1.08
2022-10-11T19:10:21.084Z,0.90
2022-10-11T19:12:59.479Z,1.30
2022-10-11T19:15:33.590Z,1.02
2022-10-11T19:18:20.453Z,1.20
2022-10-11T19:21:17.609Z,0.93
2022-10-11T19:23:47.677Z,1.15
2022-10-11T19:26:34.677Z,1.10
2022-10-11T19:29:20.124Z,1.30
2022-10-11T19:31:54.934Z,1.30
2022-10-11T19:45:34.777Z,0.88
2022-10-11T19:48:03.117Z,1.27
2022-10-11T19:50:41.871Z,1.35
2022-10-11T19:53:34.199Z,0.90
2022-10-11T19:56:32.362Z,1.00
2022-10-11T19:59:00.682Z,0.90
2022-10-11T20:01:51.958Z,1.05
2022-10-11T20:04:57.500Z,1.00
2022-10-11T20:07:33.142Z,1.70
2022-10-11T20:10:05.439Z,2.28
2022-10-11T20:12:45.713Z,1.20
2022-10-11T20:15:19.933Z,2.03
2022-10-11T20:17:51.444Z,2.00
2022-10-11T20:20:29.650Z,2.10
2022-10-11T20:23:02.353Z,2.10
2022-10-11T20:25:34.385Z,2.13
2022-10-11T20:28:06.878Z,2.10
2022-10-11T20:30:43.573Z,1.90
2022-10-11T20:33:33.746Z,1.73
2022-10-11T20:36:22.079Z,1.77
2022-10-11T20:38:58.114Z,1.65
2022-10-11T20:41:31.762Z,2.10
2022-10-11T20:44:01.588Z,2.17
2022-10-11T20:46:34.096Z,2.00
2022-10-11T20:49:06.238Z,2.55
2022-10-11T20:51:41.778Z,1.95
2022-10-11T20:54:09.417Z,2.20
2022-10-11T20:56:39.852Z,1.83
2022-10-11T20:59:11.513Z,2.13
2022-10-11T21:01:41.654Z,2.03
2022-10-11T21:04:16.622Z,1.80
2022-10-11T21:06:43.906Z,1.92
2022-10-11T21:09:16.353Z,1.63
2022-10-11T21:11:44.517Z,1.80
2022-10-11T21:14:14.426Z,1.80
2022-10-11T21:16:42.154Z,2.13
2022-10-11T21:19:13.622Z,1.65
2022-10-11T21:21:41.209Z,1.58
2022-10-11T21:24:14.298Z,1.75
2022-10-11T21:26:44.358Z,2.55
2022-10-11T21:29:14.878Z,1.80
2022-10-11T21:34:19.875Z,1.20
2022-10-11T21:36:48.162Z,2.03
2022-10-11T21:39:22.114Z,1.50
2022-10-11T21:42:01.554Z,2.10
2022-10-11T21:44:36.730Z,2.00
2022-10-11T21:47:16.258Z,2.03
2022-10-11T21:49:53.010Z,1.60
2022-10-11T21:57:07.126Z,1.67
2022-10-11T22:00:02.067Z,1.38
2022-10-11T22:30:16.557Z,2.03
2022-10-11T22:33:10.515Z,1.98
2022-10-11T22:36:12.583Z,1.88
2022-10-11T22:38:43.868Z,1.60
2022-10-11T22:41:19.618Z,1.90
2022-10-11T22:43:53.127Z,2.03
2022-10-11T22:46:33.770Z,1.90
2022-10-11T22:49:12.424Z,1.65
2022-10-11T22:51:50.592Z,1.95
2022-10-11T22:54:28.935Z,1.15
2022-10-11T22:57:08.575Z,1.20
2022-10-11T23:02:50.115Z,1.90
2022-10-11T23:05:46.103Z,1.50
2022-10-11T23:08:27.536Z,1.42
2022-10-11T23:11:16.834Z,1.77
2022-10-11T23:13:46.639Z,2.00
2022-10-11T23:16:20.815Z,1.60
2022-10-11T23:18:55.195Z,1.60
2022-10-11T23:21:24.059Z,1.83
2022-10-11T23:23:57.086Z,1.40
2022-10-11T23:26:28.859Z,1.70
2022-10-11T23:29:33.647Z,1.60
2022-10-11T23:32:16.475Z,1.67
2022-10-11T23:34:46.279Z,1.30
2022-10-11T23:37:14.275Z,1.95
2022-10-11T23:39:41.995Z,1.60
2022-10-11T23:42:09.340Z,1.70
2022-10-11T23:44:39.328Z,1.33
2022-10-11T23:47:10.020Z,1.30
2022-10-11T23:49:43.323Z,1.20
2022-10-11T23:52:19.903Z,1.40
2022-10-11T23:54:54.028Z,1.40
2022-10-11T23:57:23.004Z,1.45
2022-10-11T23:59:59.564Z,1.50
